Terminal Aerodrome Forecast
Issued by NWS Grand Forks, ND

Home | Current Version | Previous Version | Graphics & Text | Print | Product List | Glossary On
Versions: 1 2 3 4 5 6 7 8 9 10 11 12 13 14 15 16 17 18 19
677
FTUS43 KFGF 272338
TAFGFK
TAF
KGFK 272338Z 2800/2824 VRB05KT P6SM BKN150
     FM280400 VRB04KT P6SM BKN100
     FM281000 35005KT P6SM BKN025
     FM281800 02005KT P6SM BKN050=

USA.gov is the U.S. government's official web portal to all federal, state and local government web resources and services.